createdAt,value
2022-11-12T00:01:27.719Z,11.30
2022-11-12T00:04:13.089Z,11.30
2022-11-12T00:06:58.572Z,11.30
2022-11-12T00:09:43.854Z,11.20
2022-11-12T00:12:29.265Z,11.30
2022-11-12T00:15:14.835Z,11.30
2022-11-12T00:18:00.740Z,11.30
2022-11-12T00:20:46.272Z,11.40
2022-11-12T00:23:31.760Z,11.30
2022-11-12T00:26:17.008Z,11.30
2022-11-12T00:29:02.589Z,11.30
2022-11-12T00:31:48.153Z,11.30
2022-11-12T00:34:33.885Z,11.20
2022-11-12T00:37:20.590Z,11.20
2022-11-12T00:40:06.433Z,11.20
2022-11-12T00:42:52.469Z,11.20
2022-11-12T00:45:37.999Z,11.10
2022-11-12T00:48:23.682Z,11.20
2022-11-12T00:51:09.384Z,11.20
2022-11-12T00:53:55.019Z,11.20
2022-11-12T00:56:40.615Z,11.20
2022-11-12T00:59:26.118Z,11.20
2022-11-12T01:02:11.362Z,11.20
2022-11-12T01:04:56.852Z,11.20
2022-11-12T01:07:42.148Z,11.20
2022-11-12T01:10:27.769Z,11.20
2022-11-12T01:13:13.205Z,11.20
2022-11-12T01:15:58.355Z,11.20
2022-11-12T01:18:44.023Z,11.20
2022-11-12T01:21:30.476Z,11.10
2022-11-12T01:24:16.117Z,11.10
2022-11-12T01:27:01.880Z,11.10
2022-11-12T01:29:47.509Z,11.10
2022-11-12T01:32:37.217Z,11.00
2022-11-12T01:35:22.573Z,11.00
2022-11-12T01:38:07.876Z,11.00
2022-11-12T01:40:53.337Z,11.00
2022-11-12T01:43:38.534Z,10.90
2022-11-12T01:46:27.666Z,11.00
2022-11-12T01:49:19.543Z,10.90
2022-11-12T01:52:11.558Z,10.90
2022-11-12T01:54:58.535Z,10.90
2022-11-12T01:57:46.994Z,10.90
2022-11-12T02:00:35.003Z,10.90
2022-11-12T02:03:21.775Z,10.90
2022-11-12T02:06:09.394Z,10.90
2022-11-12T02:08:54.709Z,11.00
2022-11-12T02:11:40.717Z,10.90
2022-11-12T02:17:21.881Z,11.00
2022-11-12T02:20:10.970Z,10.90
2022-11-12T02:22:56.449Z,11.00
2022-11-12T02:25:41.727Z,11.00
2022-11-12T02:28:27.496Z,10.90
2022-11-12T02:31:13.155Z,10.80
2022-11-12T02:33:58.588Z,10.90
2022-11-12T02:36:43.604Z,10.80
2022-11-12T02:39:28.730Z,10.80
2022-11-12T02:42:13.816Z,10.80
2022-11-12T02:44:59.126Z,10.80
2022-11-12T02:47:44.186Z,10.80
2022-11-12T02:50:29.462Z,10.80
2022-11-12T02:53:14.753Z,10.80
2022-11-12T02:56:00.768Z,10.80
2022-11-12T02:58:46.136Z,10.80
2022-11-12T03:01:31.278Z,10.90
2022-11-12T03:04:17.050Z,10.80
2022-11-12T03:07:02.591Z,10.90
2022-11-12T03:09:48.177Z,10.80
2022-11-12T03:12:33.481Z,10.80
2022-11-12T03:15:18.676Z,10.80
2022-11-12T03:18:04.244Z,10.80
2022-11-12T03:20:51.253Z,10.70
2022-11-12T03:23:36.631Z,10.80
2022-11-12T03:26:21.845Z,10.70
2022-11-12T03:29:07.191Z,10.80
2022-11-12T03:31:52.311Z,10.80
2022-11-12T03:34:37.556Z,10.80
2022-11-12T03:37:22.819Z,10.80
2022-11-12T03:40:08.366Z,10.80
2022-11-12T03:42:54.159Z,10.80
2022-11-12T03:45:39.415Z,10.90
2022-11-12T03:48:25.056Z,10.80
2022-11-12T03:51:12.297Z,10.80
2022-11-12T03:53:57.712Z,10.80
2022-11-12T03:56:42.718Z,10.80
2022-11-12T03:59:27.872Z,10.80
2022-11-12T04:02:14.465Z,10.80
2022-11-12T04:05:18.698Z,10.80
2022-11-12T04:08:24.708Z,10.80
2022-11-12T04:11:14.176Z,10.80
2022-11-12T04:14:00.552Z,10.80
2022-11-12T04:17:04.970Z,10.70
2022-11-12T04:20:09.285Z,10.80
2022-11-12T04:22:54.634Z,10.70
2022-11-12T04:25:59.010Z,10.70
2022-11-12T04:29:04.486Z,10.70
2022-11-12T04:31:49.469Z,10.70
2022-11-12T04:34:34.873Z,10.70
2022-11-12T04:37:23.520Z,10.60
2022-11-12T04:40:29.142Z,10.70
2022-11-12T04:43:34.506Z,10.60
2022-11-12T04:46:20.017Z,10.60
2022-11-12T04:49:05.181Z,10.50
2022-11-12T04:52:10.750Z,10.60
2022-11-12T04:54:56.073Z,10.60
2022-11-12T04:57:41.378Z,10.60
2022-11-12T05:00:26.754Z,10.50
2022-11-12T05:03:12.101Z,10.50
2022-11-12T05:06:29.590Z,10.50
2022-11-12T05:09:14.940Z,10.50
2022-11-12T05:12:00.031Z,10.40
2022-11-12T05:14:45.373Z,10.50
2022-11-12T05:17:30.742Z,10.50
2022-11-12T05:20:16.063Z,10.50
2022-11-12T05:23:08.735Z,10.50
2022-11-12T05:25:54.376Z,10.50
2022-11-12T05:28:39.598Z,10.50
2022-11-12T05:31:24.738Z,10.50
2022-11-12T05:34:10.087Z,10.40
2022-11-12T05:36:55.378Z,10.40
2022-11-12T05:39:41.004Z,10.40
2022-11-12T05:42:26.287Z,10.40
2022-11-12T05:45:11.438Z,10.20
2022-11-12T05:47:56.550Z,10.30
2022-11-12T05:51:06.247Z,10.30
2022-11-12T05:53:47.160Z,10.40
2022-11-12T05:56:32.263Z,10.40
2022-11-12T05:59:17.483Z,10.30
2022-11-12T06:02:02.733Z,10.40
2022-11-12T06:04:48.286Z,10.40
2022-11-12T06:07:33.563Z,10.20
2022-11-12T06:10:20.695Z,10.30
2022-11-12T06:13:06.826Z,10.30
2022-11-12T06:15:52.867Z,10.20
2022-11-12T06:18:38.238Z,10.20
2022-11-12T06:21:23.547Z,10.20
2022-11-12T06:24:09.296Z,10.30
2022-11-12T06:26:54.808Z,10.20
2022-11-12T06:29:40.126Z,10.20
2022-11-12T06:32:25.431Z,10.30
2022-11-12T06:35:10.872Z,10.20
2022-11-12T06:37:55.939Z,10.20
2022-11-12T06:40:42.109Z,10.30
2022-11-12T06:43:28.325Z,10.30
2022-11-12T06:46:14.349Z,10.30
2022-11-12T06:48:59.559Z,10.30
2022-11-12T06:51:44.771Z,10.30
2022-11-12T06:54:30.056Z,10.30
2022-11-12T06:57:15.346Z,10.30
2022-11-12T07:00:00.514Z,10.30
2022-11-12T07:02:46.305Z,10.40
2022-11-12T07:05:31.940Z,10.40
2022-11-12T07:08:17.321Z,10.40
2022-11-12T07:11:02.826Z,10.40
2022-11-12T07:13:48.423Z,10.40
2022-11-12T07:16:33.918Z,10.40
2022-11-12T07:19:19.004Z,10.40
2022-11-12T07:22:04.642Z,10.40
2022-11-12T07:24:49.926Z,10.40
2022-11-12T07:27:35.249Z,10.40
2022-11-12T07:30:20.629Z,10.50
2022-11-12T07:33:05.691Z,10.50
2022-11-12T07:35:56.675Z,10.60
2022-11-12T07:38:43.047Z,10.60
2022-11-12T07:41:28.152Z,10.60
2022-11-12T07:44:13.342Z,10.60
2022-11-12T07:46:59.016Z,10.60
2022-11-12T07:49:44.188Z,10.60
2022-11-12T07:52:29.416Z,10.60
2022-11-12T07:55:14.584Z,10.60
2022-11-12T07:58:00.711Z,10.70
2022-11-12T08:00:46.539Z,10.60
2022-11-12T08:03:31.726Z,10.70
2022-11-12T08:06:17.180Z,10.60
2022-11-12T08:09:03.534Z,10.70
2022-11-12T08:11:49.063Z,10.70
2022-11-12T08:14:34.339Z,10.70
2022-11-12T08:17:19.501Z,10.80
2022-11-12T08:20:05.287Z,10.80
2022-11-12T08:22:50.510Z,10.80
2022-11-12T08:25:36.100Z,10.80
2022-11-12T08:28:21.370Z,10.80
2022-11-12T08:31:08.091Z,10.90
2022-11-12T08:33:53.330Z,10.90
2022-11-12T08:36:39.355Z,10.90
2022-11-12T08:39:25.066Z,10.90
2022-11-12T08:42:11.010Z,11.00
2022-11-12T08:44:56.542Z,10.80
2022-11-12T08:47:42.505Z,11.00
2022-11-12T08:50:28.431Z,11.00
2022-11-12T08:53:13.914Z,11.00
2022-11-12T08:55:59.922Z,11.00
2022-11-12T08:58:45.043Z,11.30
2022-11-12T09:01:31.589Z,11.00
2022-11-12T09:04:17.181Z,11.10
2022-11-12T09:07:02.791Z,11.10
2022-11-12T09:09:48.068Z,11.10
2022-11-12T09:12:33.409Z,11.10
2022-11-12T09:18:24.587Z,11.10
2022-11-12T09:21:11.583Z,11.40
2022-11-12T09:23:56.897Z,11.10
2022-11-12T09:26:42.542Z,11.10
2022-11-12T09:29:28.018Z,11.20
2022-11-12T09:32:13.451Z,11.10
2022-11-12T09:34:58.675Z,11.20
2022-11-12T09:37:44.175Z,11.20
2022-11-12T09:40:48.570Z,11.20
2022-11-12T09:43:35.348Z,11.30
2022-11-12T09:46:28.339Z,11.40
2022-11-12T09:49:17.010Z,11.40
2022-11-12T09:52:16.536Z,11.40
2022-11-12T09:55:06.103Z,11.40
2022-11-12T09:57:51.429Z,11.50
2022-11-12T10:00:41.129Z,11.60
2022-11-12T10:03:29.453Z,11.60
2022-11-12T10:06:19.003Z,11.40
2022-11-12T10:09:09.228Z,11.70
2022-11-12T10:12:33.337Z,11.70
2022-11-12T10:15:51.377Z,11.60
2022-11-12T10:18:37.170Z,11.70
2022-11-12T10:21:49.947Z,11.80
2022-11-12T10:24:37.336Z,11.80
2022-11-12T10:27:26.298Z,11.80
2022-11-12T10:30:23.909Z,11.90
2022-11-12T10:33:16.275Z,12.00
2022-11-12T10:36:21.249Z,12.10
2022-11-12T10:39:06.640Z,12.20
2022-11-12T10:42:01.797Z,12.30
2022-11-12T10:44:47.446Z,12.30
2022-11-12T10:47:38.897Z,12.40
2022-11-12T10:50:40.743Z,12.40
2022-11-12T10:53:34.346Z,12.50
2022-11-12T10:56:30.169Z,12.50
2022-11-12T10:59:18.657Z,12.60
2022-11-12T11:02:15.362Z,12.60
2022-11-12T11:05:00.622Z,12.70
2022-11-12T11:07:49.397Z,12.70
2022-11-12T11:10:35.630Z,12.80
2022-11-12T11:13:22.303Z,12.90
2022-11-12T11:16:10.502Z,12.90
2022-11-12T11:18:57.875Z,13.00
2022-11-12T11:21:49.492Z,13.10
2022-11-12T11:24:38.791Z,13.20
2022-11-12T11:27:33.482Z,13.30
2022-11-12T11:30:19.539Z,13.50
2022-11-12T11:33:17.609Z,13.60
2022-11-12T11:36:05.788Z,13.80
2022-11-12T11:38:57.427Z,13.90
2022-11-12T11:42:01.913Z,14.10
2022-11-12T11:44:51.908Z,14.20
2022-11-12T11:48:00.617Z,14.20
2022-11-12T11:50:56.270Z,14.30
2022-11-12T11:53:47.261Z,14.40
2022-11-12T11:56:36.779Z,14.50
2022-11-12T11:59:22.103Z,14.50
2022-11-12T12:02:22.587Z,14.60
2022-11-12T12:05:09.047Z,14.70
2022-11-12T12:08:03.908Z,14.80
2022-11-12T12:11:07.333Z,14.90
2022-11-12T12:13:54.083Z,14.90
2022-11-12T12:16:45.445Z,14.90
2022-11-12T12:19:42.492Z,15.00
2022-11-12T12:22:35.919Z,15.10
2022-11-12T12:25:29.747Z,15.00
2022-11-12T12:28:27.591Z,15.10
2022-11-12T12:31:15.468Z,15.20
2022-11-12T12:34:27.356Z,15.30
2022-11-12T12:37:12.820Z,15.50
2022-11-12T12:40:10.618Z,15.60
2022-11-12T12:42:59.795Z,15.80
2022-11-12T12:45:46.494Z,16.10
2022-11-12T12:48:33.188Z,16.30
2022-11-12T12:51:18.892Z,16.50
2022-11-12T12:54:04.494Z,16.60
2022-11-12T12:56:49.913Z,16.70
2022-11-12T12:59:35.158Z,16.90
2022-11-12T13:02:21.866Z,17.00
2022-11-12T13:05:22.034Z,17.00
2022-11-12T13:08:28.187Z,17.10
2022-11-12T13:11:59.761Z,17.20
2022-11-12T13:14:50.302Z,17.20
2022-11-12T13:17:42.476Z,17.10
2022-11-12T13:20:33.379Z,17.00
2022-11-12T13:23:57.409Z,16.90
2022-11-12T13:26:47.777Z,16.80
2022-11-12T13:29:43.451Z,16.70
2022-11-12T13:32:28.516Z,16.60
2022-11-12T13:35:13.894Z,16.50
2022-11-12T13:38:03.302Z,16.40
2022-11-12T13:40:53.916Z,16.30
2022-11-12T13:43:44.214Z,16.20
2022-11-12T13:46:31.664Z,16.00
2022-11-12T13:49:17.482Z,16.10
2022-11-12T13:52:05.161Z,16.10
2022-11-12T13:55:07.627Z,16.00
2022-11-12T13:57:53.922Z,15.90
2022-11-12T14:00:39.500Z,15.90
2022-11-12T14:03:26.552Z,15.80
2022-11-12T14:06:17.934Z,15.70
2022-11-12T14:09:03.290Z,15.70
2022-11-12T14:11:48.582Z,15.60
2022-11-12T14:14:34.080Z,15.50
2022-11-12T14:17:26.827Z,15.50
2022-11-12T14:20:21.303Z,15.40
2022-11-12T14:23:17.655Z,15.40
2022-11-12T14:26:05.406Z,15.40
2022-11-12T14:28:55.824Z,15.30
2022-11-12T14:31:41.527Z,15.20
2022-11-12T14:34:34.327Z,15.20
2022-11-12T14:37:43.445Z,15.20
2022-11-12T14:40:30.721Z,15.10
2022-11-12T14:43:27.612Z,15.10
2022-11-12T14:46:39.317Z,15.10
2022-11-12T14:49:30.608Z,15.00
2022-11-12T14:52:18.552Z,15.00
2022-11-12T14:55:10.546Z,14.90
2022-11-12T14:57:58.785Z,14.50
2022-11-12T15:00:45.887Z,14.80
2022-11-12T15:03:32.256Z,14.80
2022-11-12T15:06:28.021Z,14.80
2022-11-12T15:09:17.553Z,14.80
2022-11-12T15:12:08.259Z,14.80
2022-11-12T15:14:53.633Z,14.70
2022-11-12T15:17:38.730Z,14.70
2022-11-12T15:20:23.865Z,14.70
2022-11-12T15:23:16.388Z,14.60
2022-11-12T15:26:01.685Z,14.60
2022-11-12T15:29:00.445Z,14.60
2022-11-12T15:31:48.707Z,14.50
2022-11-12T15:34:40.077Z,14.60
2022-11-12T15:37:26.863Z,14.50
2022-11-12T15:40:18.675Z,14.50
2022-11-12T15:43:04.486Z,14.50
2022-11-12T15:45:51.311Z,14.30
2022-11-12T15:48:36.726Z,14.30
2022-11-12T15:51:22.213Z,14.30
2022-11-12T15:54:07.699Z,14.30
2022-11-12T15:56:52.985Z,14.30
2022-11-12T15:59:38.346Z,14.20
2022-11-12T16:02:23.910Z,14.20
2022-11-12T16:05:14.287Z,14.10
2022-11-12T16:07:59.809Z,14.10
2022-11-12T16:10:46.316Z,14.10
2022-11-12T16:13:33.293Z,14.10
2022-11-12T16:16:18.835Z,14.00
2022-11-12T16:19:04.124Z,14.10
2022-11-12T16:21:49.705Z,14.00
2022-11-12T16:24:35.086Z,14.00
2022-11-12T16:27:22.687Z,14.00
2022-11-12T16:30:14.945Z,14.00
2022-11-12T16:33:01.042Z,14.00
2022-11-12T16:35:46.167Z,14.00
2022-11-12T16:38:31.267Z,13.90
2022-11-12T16:41:16.403Z,13.90
2022-11-12T16:44:01.882Z,13.90
2022-11-12T16:46:47.385Z,13.90
2022-11-12T16:49:38.277Z,13.90
2022-11-12T16:52:23.893Z,13.90
2022-11-12T16:55:11.857Z,13.90
2022-11-12T16:57:57.789Z,13.90
2022-11-12T17:00:45.893Z,13.90
2022-11-12T17:03:31.478Z,13.50
2022-11-12T17:06:27.135Z,13.80
2022-11-12T17:09:16.311Z,13.80
2022-11-12T17:12:01.627Z,13.80
2022-11-12T17:14:50.413Z,13.80
2022-11-12T17:17:36.237Z,13.80
2022-11-12T17:20:21.526Z,13.80
2022-11-12T17:23:07.203Z,13.70
2022-11-12T17:25:59.692Z,13.50
2022-11-12T17:28:45.966Z,13.70
2022-11-12T17:31:31.543Z,13.70
2022-11-12T17:34:17.178Z,13.70
2022-11-12T17:37:02.273Z,13.60
2022-11-12T17:39:48.283Z,13.60
2022-11-12T17:42:33.878Z,13.60
2022-11-12T17:45:21.699Z,13.60
2022-11-12T17:48:07.101Z,13.60
2022-11-12T17:51:02.930Z,13.60
2022-11-12T17:53:48.706Z,13.60
2022-11-12T17:56:37.077Z,13.60
2022-11-12T17:59:22.827Z,13.60
2022-11-12T18:02:11.585Z,13.50
2022-11-12T18:04:57.288Z,13.50
2022-11-12T18:07:42.373Z,13.50
2022-11-12T18:10:28.864Z,13.50
2022-11-12T18:13:14.473Z,13.50
2022-11-12T18:16:01.164Z,13.40
2022-11-12T18:18:46.636Z,13.40
2022-11-12T18:21:32.181Z,13.40
2022-11-12T18:24:17.747Z,13.40
2022-11-12T18:27:03.371Z,13.30
2022-11-12T18:29:48.712Z,13.30
2022-11-12T18:32:34.197Z,13.30
2022-11-12T18:35:19.460Z,13.30
2022-11-12T18:38:04.742Z,13.30
2022-11-12T18:40:50.067Z,13.20
2022-11-12T18:43:39.095Z,13.20
2022-11-12T18:46:24.744Z,13.20
2022-11-12T18:49:09.979Z,13.20
2022-11-12T18:51:55.246Z,13.20
2022-11-12T18:54:40.635Z,13.20
2022-11-12T18:57:25.991Z,13.10
2022-11-12T19:00:11.899Z,13.10
2022-11-12T19:02:56.969Z,13.10
2022-11-12T19:05:42.327Z,13.00
2022-11-12T19:08:27.677Z,13.10
2022-11-12T19:11:13.975Z,13.10
2022-11-12T19:13:59.225Z,13.10
2022-11-12T19:16:44.940Z,13.10
2022-11-12T19:19:30.605Z,13.10
2022-11-12T19:22:16.297Z,13.00
2022-11-12T19:25:04.386Z,13.10
2022-11-12T19:27:49.591Z,13.10
2022-11-12T19:30:34.838Z,13.10
2022-11-12T19:33:21.992Z,13.00
2022-11-12T19:36:09.188Z,13.00
2022-11-12T19:38:55.969Z,13.00
2022-11-12T19:41:41.540Z,12.90
2022-11-12T19:44:26.865Z,12.90
2022-11-12T19:47:12.077Z,12.90
2022-11-12T19:49:57.398Z,12.90
2022-11-12T19:52:42.711Z,12.90
2022-11-12T19:55:29.033Z,12.90
2022-11-12T19:58:14.408Z,12.90
2022-11-12T20:01:10.274Z,12.90
2022-11-12T20:03:55.616Z,12.90
2022-11-12T20:06:40.847Z,12.80
2022-11-12T20:09:26.957Z,12.80
2022-11-12T20:12:12.277Z,12.80
2022-11-12T20:14:57.735Z,12.80
2022-11-12T20:17:43.734Z,12.80
2022-11-12T20:20:28.934Z,12.80
2022-11-12T20:23:14.433Z,12.90
2022-11-12T20:26:04.793Z,12.90
2022-11-12T20:28:50.216Z,12.90
2022-11-12T20:31:35.597Z,12.90
2022-11-12T20:34:20.732Z,12.90
2022-11-12T20:37:06.241Z,12.90
2022-11-12T20:39:51.589Z,12.90
2022-11-12T20:42:37.206Z,12.90
2022-11-12T20:45:25.284Z,13.00
2022-11-12T20:48:11.201Z,13.00
2022-11-12T20:51:23.067Z,12.90
2022-11-12T20:54:09.517Z,13.00
2022-11-12T20:56:56.313Z,13.00
2022-11-12T20:59:41.817Z,13.00
2022-11-12T21:02:27.206Z,13.00
2022-11-12T21:05:12.817Z,13.00
2022-11-12T21:07:58.711Z,12.90
2022-11-12T21:10:48.348Z,13.00
2022-11-12T21:13:35.129Z,13.00
2022-11-12T21:16:20.789Z,13.00
2022-11-12T21:19:06.933Z,12.80
2022-11-12T21:21:52.298Z,12.90
2022-11-12T21:24:37.525Z,12.90
2022-11-12T21:27:22.775Z,12.90
2022-11-12T21:30:08.593Z,12.90
2022-11-12T21:32:53.830Z,12.90
2022-11-12T21:35:39.421Z,12.90
2022-11-12T21:38:24.948Z,12.90
2022-11-12T21:41:11.903Z,12.90
2022-11-12T21:43:58.100Z,13.00
2022-11-12T21:46:43.391Z,12.90
2022-11-12T21:49:28.579Z,12.90
2022-11-12T21:52:13.934Z,13.00
2022-11-12T21:54:59.275Z,13.00
2022-11-12T21:57:44.760Z,13.00
2022-11-12T22:00:45.327Z,13.00
2022-11-12T22:03:31.151Z,13.00
2022-11-12T22:06:17.213Z,13.10
2022-11-12T22:09:02.643Z,13.10
2022-11-12T22:11:48.239Z,13.10
2022-11-12T22:14:33.806Z,13.00
2022-11-12T22:17:19.558Z,13.10
2022-11-12T22:20:05.202Z,13.10
2022-11-12T22:22:51.529Z,13.10
2022-11-12T22:25:37.298Z,13.10
2022-11-12T22:28:22.518Z,13.10
2022-11-12T22:31:10.391Z,13.10
2022-11-12T22:33:58.134Z,13.10
2022-11-12T22:36:43.392Z,13.10
2022-11-12T22:39:28.664Z,13.10
2022-11-12T22:42:13.818Z,13.20
2022-11-12T22:44:59.063Z,13.10
2022-11-12T22:47:44.398Z,13.10
2022-11-12T22:50:29.790Z,13.10
2022-11-12T22:53:15.033Z,13.10
2022-11-12T22:56:04.931Z,13.10
2022-11-12T22:58:50.225Z,13.10
2022-11-12T23:01:36.011Z,13.10
2022-11-12T23:04:21.668Z,13.10
2022-11-12T23:07:07.094Z,13.10
2022-11-12T23:09:52.496Z,13.00
2022-11-12T23:12:38.051Z,13.10
2022-11-12T23:15:23.637Z,13.00
2022-11-12T23:18:08.817Z,13.00
2022-11-12T23:20:54.311Z,13.00
2022-11-12T23:23:39.966Z,13.00
2022-11-12T23:26:26.255Z,12.90
2022-11-12T23:29:11.703Z,12.90
2022-11-12T23:31:57.198Z,12.90
2022-11-12T23:34:42.546Z,12.80
2022-11-12T23:37:27.962Z,12.80
2022-11-12T23:40:13.038Z,12.80
2022-11-12T23:42:58.323Z,12.70
2022-11-12T23:45:43.519Z,12.60
2022-11-12T23:48:29.122Z,12.60
2022-11-12T23:51:15.770Z,12.50
2022-11-12T23:54:01.270Z,12.60
2022-11-12T23:56:46.562Z,12.50
2022-11-12T23:59:33.223Z,12.30
